createdAt,value
2016-03-31T00:00:28.395Z,74.15
2016-03-31T00:01:28.382Z,74.15
2016-03-31T00:02:28.384Z,74.05
2016-03-31T00:03:28.371Z,74.05
2016-03-31T00:04:28.359Z,74.15
2016-03-31T00:05:28.346Z,74.33
2016-03-31T00:06:28.348Z,74.24
2016-03-31T00:07:28.335Z,74.52
2016-03-31T00:08:28.338Z,74.81
2016-03-31T00:09:28.325Z,74.33
2016-03-31T00:10:28.328Z,75
2016-03-31T00:11:28.314Z,74.43
2016-03-31T00:12:28.317Z,74.62
2016-03-31T00:13:28.305Z,74.15
2016-03-31T00:14:28.292Z,74.52
2016-03-31T00:15:28.295Z,74.52
2016-03-31T00:16:28.281Z,74.15
2016-03-31T00:17:28.305Z,74.43
2016-03-31T00:18:28.265Z,74.43
2016-03-31T00:19:28.256Z,74.43
2016-03-31T00:20:28.253Z,74.43
2016-03-31T00:21:28.241Z,74.15
2016-03-31T00:22:28.227Z,74.43
2016-03-31T00:23:28.229Z,74.15
2016-03-31T00:24:28.249Z,74.43
2016-03-31T00:25:28.219Z,74.15
2016-03-31T00:26:28.222Z,74.15
2016-03-31T00:27:28.194Z,74.15
2016-03-31T00:28:29.587Z,74.15
2016-03-31T00:29:29.652Z,74.33
2016-03-31T00:30:29.598Z,74.62
2016-03-31T00:31:28.428Z,74.62
2016-03-31T00:32:28.966Z,74.33
2016-03-31T00:33:28.171Z,74.33
2016-03-31T00:34:28.142Z,74.15
2016-03-31T00:35:28.145Z,74.43
2016-03-31T00:36:28.132Z,74.43
2016-03-31T00:38:28.825Z,74.52
2016-03-31T00:39:28.108Z,74.15
2016-03-31T00:40:28.112Z,74.43
2016-03-31T00:41:28.083Z,74.9
2016-03-31T00:42:28.086Z,74.33
2016-03-31T00:43:28.792Z,74.43
2016-03-31T00:44:28.231Z,74.43
2016-03-31T00:46:28.066Z,74.52
2016-03-31T00:47:28.068Z,74.81
2016-03-31T00:48:28.399Z,74.52
2016-03-31T00:49:28.042Z,74.62
2016-03-31T00:50:28.044Z,74.43
2016-03-31T00:51:28.048Z,74.43
2016-03-31T00:52:28.019Z,74.43
2016-03-31T00:53:28.022Z,74.43
2016-03-31T00:54:28.008Z,74.43
2016-03-31T00:55:28.011Z,74.33
2016-03-31T00:56:28.545Z,74.33
2016-03-31T00:57:27.985Z,74.71
2016-03-31T00:58:27.988Z,74.33
2016-03-31T00:59:27.976Z,74.33
2016-03-31T01:00:27.978Z,74.43
2016-03-31T01:01:27.965Z,74.43
2016-03-31T01:02:27.968Z,74.62
2016-03-31T01:03:27.954Z,74.15
2016-03-31T01:04:27.942Z,74.62
2016-03-31T01:05:27.945Z,74.33
2016-03-31T01:06:27.931Z,74.15
2016-03-31T01:07:27.934Z,74.24
2016-03-31T01:08:27.906Z,74.24
2016-03-31T01:09:27.908Z,74.62
2016-03-31T01:10:27.896Z,74.62
2016-03-31T01:11:27.898Z,74.43
2016-03-31T01:12:27.886Z,74.43
2016-03-31T01:13:27.872Z,74.43
2016-03-31T01:14:27.875Z,74.43
2016-03-31T01:15:27.878Z,74.33
2016-03-31T01:16:27.864Z,74.81
2016-03-31T01:17:27.852Z,74.52
2016-03-31T01:18:27.855Z,74.62
2016-03-31T01:19:27.825Z,74.33
2016-03-31T01:20:27.844Z,74.81
2016-03-31T01:21:27.815Z,74.47
2016-03-31T01:22:27.818Z,74.71
2016-03-31T01:23:27.805Z,74.33
2016-03-31T01:24:27.808Z,74.47
2016-03-31T01:25:27.795Z,74.43
2016-03-31T01:26:27.798Z,74.33
2016-03-31T01:27:27.784Z,74.47
2016-03-31T01:28:27.787Z,74.81
2016-03-31T01:29:27.774Z,74.75
2016-03-31T01:30:27.620Z,74.27
2016-03-31T01:31:27.748Z,74.37
2016-03-31T01:32:27.751Z,74.47
2016-03-31T01:33:27.770Z,74.43
2016-03-31T01:34:27.740Z,74.47
2016-03-31T01:35:27.728Z,74.27
2016-03-31T01:36:27.715Z,74.66
2016-03-31T01:37:27.717Z,74.66
2016-03-31T01:38:27.705Z,74.47
2016-03-31T01:39:27.709Z,74.47
2016-03-31T01:40:27.695Z,74.47
2016-03-31T01:41:27.697Z,74.56
2016-03-31T01:42:27.685Z,74.56
2016-03-31T01:43:27.672Z,74.18
2016-03-31T01:44:27.659Z,74.56
2016-03-31T01:45:27.677Z,74.37
2016-03-31T01:46:27.648Z,74.47
2016-03-31T01:47:29.089Z,74.37
2016-03-31T01:48:27.638Z,74.47
2016-03-31T01:49:29.094Z,75.04
2016-03-31T01:50:28.081Z,74.85
2016-03-31T01:51:27.646Z,74.27
2016-03-31T01:52:27.618Z,74.08
2016-03-31T01:53:27.621Z,74.18
2016-03-31T01:54:27.607Z,74.08
2016-03-31T01:55:27.594Z,73.99
2016-03-31T01:56:29.441Z,74.37
2016-03-31T01:57:28.521Z,74.47
2016-03-31T01:58:27.587Z,74.18
2016-03-31T01:59:27.746Z,74.37
2016-03-31T02:00:27.561Z,74.27
2016-03-31T02:01:27.548Z,74.27
2016-03-31T02:02:29.020Z,74.37
2016-03-31T02:03:27.788Z,74.18
2016-03-31T02:04:27.540Z,74.66
2016-03-31T02:05:27.528Z,74.47
2016-03-31T02:06:27.531Z,74.56
2016-03-31T02:07:27.526Z,74.47
2016-03-31T02:08:27.513Z,74.18
2016-03-31T02:09:27.500Z,74.27
2016-03-31T02:10:27.502Z,74.18
2016-03-31T02:11:27.491Z,74.18
2016-03-31T02:12:27.633Z,74.18
2016-03-31T02:13:27.886Z,74.27
2016-03-31T02:14:27.467Z,74.18
2016-03-31T02:15:28.204Z,74.37
2016-03-31T02:16:27.440Z,74.18
2016-03-31T02:17:27.540Z,74.18
2016-03-31T02:18:27.840Z,74.18
2016-03-31T02:19:27.437Z,74.27
2016-03-31T02:20:27.440Z,74.08
2016-03-31T02:21:27.426Z,73.9
2016-03-31T02:22:27.429Z,74.37
2016-03-31T02:23:27.415Z,74.27
2016-03-31T02:24:27.418Z,74.27
2016-03-31T02:25:27.405Z,74.18
2016-03-31T02:26:27.392Z,73.99
2016-03-31T02:27:27.395Z,74.27
2016-03-31T02:28:27.382Z,74.37
2016-03-31T02:29:27.385Z,74.37
2016-03-31T02:30:27.356Z,74.18
2016-03-31T02:31:27.358Z,74.18
2016-03-31T02:32:27.424Z,74.27
2016-03-31T02:33:27.349Z,74.18
2016-03-31T02:34:27.336Z,74.56
2016-03-31T02:35:27.338Z,74.47
2016-03-31T02:36:27.310Z,73.71
2016-03-31T02:37:27.328Z,74.08
2016-03-31T02:38:27.315Z,73.99
2016-03-31T02:39:27.302Z,73.8
2016-03-31T02:40:27.290Z,73.61
2016-03-31T02:41:27.292Z,73.52
2016-03-31T02:42:27.296Z,73.71
2016-03-31T02:43:27.282Z,73.61
2016-03-31T02:44:27.269Z,73.42
2016-03-31T02:45:27.287Z,73.42
2016-03-31T02:46:27.260Z,73.61
2016-03-31T02:47:27.293Z,73.42
2016-03-31T02:48:27.248Z,73.61
2016-03-31T02:49:27.235Z,73.42
2016-03-31T02:50:27.238Z,73.42
2016-03-31T02:51:27.256Z,73.61
2016-03-31T02:52:27.229Z,73.61
2016-03-31T02:53:27.231Z,73.42
2016-03-31T02:54:27.203Z,73.42
2016-03-31T02:55:27.205Z,73.61
2016-03-31T02:56:27.208Z,73.8
2016-03-31T02:57:27.195Z,73.42
2016-03-31T02:58:27.197Z,73.61
2016-03-31T02:59:27.169Z,73.61
2016-03-31T03:00:27.172Z,73.61
2016-03-31T03:01:27.158Z,73.42
2016-03-31T03:02:27.193Z,73.52
2016-03-31T03:03:27.148Z,73.52
2016-03-31T03:04:27.151Z,73.8
2016-03-31T03:05:27.138Z,73.61
2016-03-31T03:06:27.922Z,73.42
2016-03-31T03:07:27.113Z,73.42
2016-03-31T03:08:28.531Z,73.52
2016-03-31T03:09:27.331Z,73.8
2016-03-31T03:10:27.974Z,73.52
2016-03-31T03:11:27.087Z,73.61
2016-03-31T03:12:27.074Z,73.52
2016-03-31T03:13:27.061Z,73.33
2016-03-31T03:14:27.064Z,73.52
2016-03-31T03:16:27.882Z,73.42
2016-03-31T03:17:27.150Z,73.61
2016-03-31T03:18:27.200Z,73.42
2016-03-31T03:19:27.030Z,73.42
2016-03-31T03:20:27.032Z,73.61
2016-03-31T03:21:27.427Z,73.61
2016-03-31T03:22:27.023Z,73.71
2016-03-31T03:23:27.901Z,73.9
2016-03-31T03:24:27.029Z,73.9
2016-03-31T03:25:26.999Z,73.8
2016-03-31T03:26:27.034Z,73.8
2016-03-31T03:27:26.989Z,73.8
2016-03-31T03:28:26.977Z,73.8
2016-03-31T03:29:26.979Z,73.71
2016-03-31T03:30:26.965Z,73.61
2016-03-31T03:31:27.751Z,73.71
2016-03-31T03:32:26.940Z,73.71
2016-03-31T03:33:26.959Z,73.71
2016-03-31T03:34:27.227Z,73.9
2016-03-31T03:36:26.919Z,73.8
2016-03-31T03:37:26.938Z,73.8
2016-03-31T03:38:26.894Z,73.8
2016-03-31T03:39:26.911Z,73.8
2016-03-31T03:40:26.899Z,73.61
2016-03-31T03:41:26.886Z,73.42
2016-03-31T03:42:26.889Z,73.8
2016-03-31T03:43:26.875Z,73.71
2016-03-31T03:44:26.879Z,73.8
2016-03-31T03:45:26.866Z,73.42
2016-03-31T03:46:26.852Z,73.61
2016-03-31T03:47:26.841Z,73.71
2016-03-31T03:48:26.843Z,73.52
2016-03-31T03:49:26.846Z,73.71
2016-03-31T03:50:26.832Z,73.71
2016-03-31T03:51:26.819Z,73.8
2016-03-31T03:52:26.822Z,73.61
2016-03-31T03:53:26.810Z,73.8
2016-03-31T03:54:26.813Z,73.23
2016-03-31T03:55:26.799Z,73.61
2016-03-31T03:56:26.832Z,73.71
2016-03-31T03:57:26.789Z,73.52
2016-03-31T03:58:26.776Z,73.71
2016-03-31T03:59:26.779Z,73.71
2016-03-31T04:00:26.781Z,73.52
2016-03-31T04:01:26.768Z,73.71
2016-03-31T04:02:26.786Z,73.71
2016-03-31T04:03:26.758Z,73.71
2016-03-31T04:04:26.729Z,73.71
2016-03-31T04:05:26.732Z,73.8
2016-03-31T04:06:26.719Z,73.14
2016-03-31T04:07:26.737Z,73.71
2016-03-31T04:08:26.709Z,73.8
2016-03-31T04:09:26.711Z,73.71
2016-03-31T04:10:26.698Z,73.61
2016-03-31T04:11:26.701Z,73.61
2016-03-31T04:12:26.774Z,73.8
2016-03-31T04:13:28.630Z,73.61
2016-03-31T04:14:26.649Z,73.8
2016-03-31T04:15:27.089Z,73.71
2016-03-31T04:16:26.649Z,73.61
2016-03-31T04:17:26.824Z,73.61
2016-03-31T04:18:26.623Z,73.71
2016-03-31T04:19:26.611Z,73.52
2016-03-31T04:20:26.613Z,73.52
2016-03-31T04:21:26.615Z,73.61
2016-03-31T04:22:26.603Z,73.52
2016-03-31T04:23:26.590Z,73.61
2016-03-31T04:24:26.593Z,73.61
2016-03-31T04:25:27.814Z,73.61
2016-03-31T04:26:28.120Z,73.52
2016-03-31T04:27:27.768Z,73.52
2016-03-31T04:28:26.730Z,73.61
2016-03-31T04:29:27.426Z,73.52
2016-03-31T04:30:26.798Z,73.52
2016-03-31T04:31:26.834Z,73.61
2016-03-31T04:32:26.856Z,73.42
2016-03-31T04:33:26.846Z,73.8
2016-03-31T04:34:28.462Z,73.61
2016-03-31T04:35:27.246Z,73.71
2016-03-31T04:36:26.864Z,73.9
2016-03-31T04:37:26.904Z,73.71
2016-03-31T04:38:26.866Z,73.61
2016-03-31T04:39:26.860Z,73.8
2016-03-31T04:40:27.383Z,73.9
2016-03-31T04:41:26.841Z,73.9
2016-03-31T04:44:41.028Z,73.61
2016-03-31T04:45:26.846Z,73.52
2016-03-31T04:46:26.834Z,73.71
2016-03-31T04:47:27.150Z,73.61
2016-03-31T04:48:26.827Z,73.71
2016-03-31T04:49:26.830Z,73.61
2016-03-31T04:50:26.818Z,73.52
2016-03-31T04:51:26.821Z,73.42
2016-03-31T04:52:41.699Z,73.8
2016-03-31T04:53:26.843Z,73.71
2016-03-31T04:54:40.986Z,73.8
2016-03-31T04:55:26.833Z,73.42
2016-03-31T04:56:26.789Z,73.14
2016-03-31T04:57:26.870Z,73.33
2016-03-31T04:58:26.764Z,73.23
2016-03-31T04:59:26.766Z,73.23
2016-03-31T05:00:26.753Z,72.85
2016-03-31T05:01:26.756Z,73.27
2016-03-31T05:02:26.805Z,73.04
2016-03-31T05:03:26.747Z,73.14
2016-03-31T05:04:26.733Z,73.33
2016-03-31T05:05:26.720Z,73.61
2016-03-31T05:06:26.723Z,73.71
2016-03-31T05:07:26.711Z,73.52
2016-03-31T05:08:26.713Z,73.55
2016-03-31T05:09:26.700Z,73.46
2016-03-31T05:10:26.702Z,73.33
2016-03-31T05:11:26.689Z,73.14
2016-03-31T05:12:26.677Z,72.99
2016-03-31T05:13:26.679Z,73.08
2016-03-31T05:14:26.666Z,72.89
2016-03-31T05:15:26.654Z,73.08
2016-03-31T05:16:26.671Z,72.7
2016-03-31T05:17:26.675Z,72.99
2016-03-31T05:18:26.630Z,72.79
2016-03-31T05:19:26.632Z,73.08
2016-03-31T05:20:26.636Z,72.89
2016-03-31T05:21:26.607Z,72.13
2016-03-31T05:22:26.626Z,72.41
2016-03-31T05:23:26.628Z,72.32
2016-03-31T05:24:26.615Z,72.22
2016-03-31T05:25:26.602Z,72.22
2016-03-31T05:26:26.605Z,72.41
2016-03-31T05:27:26.608Z,72.22
2016-03-31T05:28:26.579Z,72.51
2016-03-31T05:29:26.581Z,72.6
2016-03-31T05:30:26.585Z,72.22
2016-03-31T05:31:26.556Z,71.94
2016-03-31T05:32:26.558Z,72.41
2016-03-31T05:33:26.545Z,71.56
2016-03-31T05:34:26.548Z,71.84
2016-03-31T05:35:26.535Z,71.84
2016-03-31T05:36:26.553Z,71.66
2016-03-31T05:37:26.525Z,71.66
2016-03-31T05:38:26.558Z,71.78
2016-03-31T05:39:26.531Z,71.69
2016-03-31T05:40:26.377Z,71.56
2016-03-31T05:41:26.505Z,71.41
2016-03-31T05:42:26.507Z,71.5
2016-03-31T05:43:26.494Z,71.69
2016-03-31T05:44:27.824Z,71.12
2016-03-31T05:45:26.500Z,70.83
2016-03-31T05:46:26.471Z,70.93
2016-03-31T05:47:27.052Z,70.83
2016-03-31T05:48:26.460Z,71.22
2016-03-31T05:49:26.464Z,71.41
2016-03-31T05:50:26.498Z,70.83
2016-03-31T05:51:26.453Z,70.93
2016-03-31T05:52:26.441Z,70.93
2016-03-31T05:53:26.443Z,70.83
2016-03-31T05:54:27.227Z,70.45
2016-03-31T05:55:26.840Z,70.54
2016-03-31T05:56:27.685Z,70.54
2016-03-31T05:57:27.376Z,69.98
2016-03-31T05:58:26.597Z,69.88
2016-03-31T05:59:27.600Z,69.98
2016-03-31T06:00:27.258Z,70.07
2016-03-31T06:01:26.403Z,70.07
2016-03-31T06:02:26.405Z,70.26
2016-03-31T06:03:26.392Z,69.98
2016-03-31T06:04:26.676Z,69.73
2016-03-31T06:05:26.366Z,69.73
2016-03-31T06:06:26.353Z,69.35
2016-03-31T06:07:26.356Z,69.25
2016-03-31T06:08:26.358Z,69.25
2016-03-31T06:11:26.742Z,68.87
2016-03-31T06:12:26.322Z,68.49
2016-03-31T06:13:26.450Z,68.59
2016-03-31T06:14:26.313Z,68.68
2016-03-31T06:15:26.330Z,68.21
2016-03-31T06:16:26.318Z,68.43
2016-03-31T06:17:26.321Z,67.82
2016-03-31T06:18:26.291Z,67.86
2016-03-31T06:19:26.310Z,67.67
2016-03-31T06:20:26.296Z,67.86
2016-03-31T06:21:26.299Z,68.15
2016-03-31T06:22:26.287Z,66.91
2016-03-31T06:23:26.290Z,67.86
2016-03-31T06:24:26.276Z,66.81
2016-03-31T06:25:26.279Z,66.72
2016-03-31T06:26:26.266Z,66.72
2016-03-31T06:27:26.269Z,66.81
2016-03-31T06:28:26.271Z,66.75
2016-03-31T06:29:26.259Z,65.99
2016-03-31T06:30:26.262Z,66.56
2016-03-31T06:31:26.248Z,66.46
2016-03-31T06:32:26.251Z,65.89
2016-03-31T06:33:26.238Z,65.7
2016-03-31T06:34:26.257Z,65.42
2016-03-31T06:35:26.228Z,65.51
2016-03-31T06:36:26.230Z,65.42
2016-03-31T06:37:26.218Z,65.13
2016-03-31T06:38:26.220Z,65.23
2016-03-31T06:39:26.208Z,65.13
2016-03-31T06:40:26.211Z,65.61
2016-03-31T06:41:26.213Z,64.84
2016-03-31T06:42:26.231Z,64.84
2016-03-31T06:43:26.218Z,64.75
2016-03-31T06:44:26.205Z,64.75
2016-03-31T06:45:26.177Z,64.65
2016-03-31T06:46:26.194Z,64.75
2016-03-31T06:47:26.183Z,64.94
2016-03-31T06:48:26.185Z,64.28
2016-03-31T06:49:26.171Z,64.37
2016-03-31T06:50:26.175Z,64.28
2016-03-31T06:51:26.162Z,64.28
2016-03-31T06:52:26.179Z,63.99
2016-03-31T06:53:26.168Z,63.99
2016-03-31T06:54:26.154Z,63.99
2016-03-31T06:55:26.157Z,63.99
2016-03-31T06:56:26.160Z,63.89
2016-03-31T06:57:26.131Z,64.28
2016-03-31T06:58:26.149Z,63.51
2016-03-31T06:59:26.136Z,63.51
2016-03-31T07:00:26.123Z,63.26
2016-03-31T07:01:26.126Z,63.8
2016-03-31T07:02:26.112Z,63.07
2016-03-31T07:04:26.118Z,63.07
2016-03-31T07:05:26.120Z,63.17
2016-03-31T07:06:27.015Z,62.78
2016-03-31T07:07:26.095Z,62.88
2016-03-31T07:08:26.103Z,62.49
2016-03-31T07:09:26.089Z,62.52
2016-03-31T07:10:26.092Z,62.24
2016-03-31T07:11:26.095Z,61.96
2016-03-31T07:12:26.707Z,61.86
2016-03-31T07:13:26.085Z,61.76
2016-03-31T07:14:27.385Z,61.38
2016-03-31T07:15:26.105Z,61.48
2016-03-31T07:16:26.063Z,61.29
2016-03-31T07:17:26.080Z,61.38
2016-03-31T07:18:26.707Z,60.72
2016-03-31T07:19:26.383Z,60.81
2016-03-31T07:20:27.073Z,60.75
2016-03-31T07:21:40.340Z,61.04
2016-03-31T07:22:26.609Z,60.36
2016-03-31T07:23:26.066Z,60.17
2016-03-31T07:24:26.068Z,59.7
2016-03-31T07:25:26.054Z,59.51
2016-03-31T07:26:26.151Z,59.6
2016-03-31T07:27:26.045Z,59.51
2016-03-31T07:28:26.937Z,59.6
2016-03-31T07:29:26.425Z,59.6
2016-03-31T07:30:26.240Z,59.7
2016-03-31T07:31:26.023Z,59.31
2016-03-31T07:32:26.026Z,58.94
2016-03-31T07:33:26.029Z,59.22
2016-03-31T07:34:26.032Z,59.12
2016-03-31T07:35:26.019Z,58.94
2016-03-31T07:36:26.022Z,59.12
2016-03-31T07:37:26.025Z,58.75
2016-03-31T07:38:26.027Z,58.84
2016-03-31T07:39:26.014Z,58.46
2016-03-31T07:40:26.017Z,58.84
2016-03-31T07:41:26.019Z,58.84
2016-03-31T07:42:26.022Z,58.65
2016-03-31T07:43:25.994Z,58.46
2016-03-31T07:44:25.997Z,58.36
2016-03-31T07:45:26.015Z,58.55
2016-03-31T07:46:26.002Z,58.55
2016-03-31T07:47:26.020Z,58.84
2016-03-31T07:48:25.992Z,58.36
2016-03-31T07:49:25.979Z,58.17
2016-03-31T07:50:25.982Z,57.53
2016-03-31T07:51:25.985Z,58.01
2016-03-31T07:52:25.987Z,57.63
2016-03-31T07:53:25.990Z,57.53
2016-03-31T07:54:25.976Z,57.15
2016-03-31T07:55:25.979Z,56.77
2016-03-31T07:56:25.982Z,56.7
2016-03-31T07:57:25.984Z,56.7
2016-03-31T07:58:25.971Z,56.7
2016-03-31T07:59:25.974Z,55.94
2016-03-31T08:00:25.977Z,56.04
2016-03-31T08:01:25.948Z,55.36
2016-03-31T08:02:25.967Z,55.08
2016-03-31T08:03:25.969Z,55.36
2016-03-31T08:04:25.972Z,55.36
2016-03-31T08:05:25.959Z,54.89
2016-03-31T08:06:25.962Z,55.08
2016-03-31T08:07:25.950Z,54.79
2016-03-31T08:08:25.952Z,54.25
2016-03-31T08:09:25.955Z,53.77
2016-03-31T08:10:25.942Z,52.59
2016-03-31T08:11:25.945Z,51.83
2016-03-31T08:12:25.947Z,52.12
2016-03-31T08:13:25.950Z,52.19
2016-03-31T08:14:25.952Z,52.57
2016-03-31T08:15:25.939Z,52
2016-03-31T08:16:25.769Z,51.9
2016-03-31T08:17:25.945Z,52
2016-03-31T08:18:25.932Z,51.81
2016-03-31T08:19:25.935Z,52.76
2016-03-31T08:20:25.921Z,52.38
2016-03-31T08:21:25.940Z,52.76
2016-03-31T08:22:25.927Z,52.67
2016-03-31T08:23:26.195Z,52.57
2016-03-31T08:24:25.948Z,52.38
2016-03-31T08:25:27.137Z,52.48
2016-03-31T08:26:25.937Z,52.48
2016-03-31T08:27:25.940Z,52.76
2016-03-31T08:28:25.942Z,52.76
2016-03-31T08:29:25.946Z,52.59
2016-03-31T08:30:25.932Z,52.31
2016-03-31T08:31:27.717Z,51.95
2016-03-31T08:32:27.297Z,51.76
2016-03-31T08:33:25.940Z,51.67
2016-03-31T08:34:26.209Z,51.5
2016-03-31T08:35:26.290Z,51.12
2016-03-31T08:36:25.933Z,51.15
2016-03-31T08:37:26.483Z,50.29
2016-03-31T08:38:26.095Z,49.52
2016-03-31T08:39:26.535Z,48.85
2016-03-31T08:40:26.679Z,48.28
2016-03-31T08:41:26.181Z,48.95
2016-03-31T08:42:25.934Z,49.04
2016-03-31T08:43:25.922Z,48.85
2016-03-31T08:44:25.924Z,49.04
2016-03-31T08:45:25.927Z,48.85
2016-03-31T08:46:25.930Z,48.95
2016-03-31T08:49:26.328Z,47.63
2016-03-31T08:50:25.940Z,47.44
2016-03-31T08:51:25.942Z,46.2
2016-03-31T08:52:25.945Z,45.98
2016-03-31T08:53:25.932Z,46.56
2016-03-31T08:54:25.951Z,45.98
2016-03-31T08:55:25.937Z,46.37
2016-03-31T08:56:25.940Z,46.34
2016-03-31T08:57:25.943Z,46.53
2016-03-31T08:58:25.946Z,46.37
2016-03-31T08:59:25.948Z,46.56
2016-03-31T09:00:25.951Z,46.27
2016-03-31T09:01:25.954Z,46.27
2016-03-31T09:02:25.957Z,46.46
2016-03-31T09:03:25.943Z,46.37
2016-03-31T09:04:25.945Z,46.08
2016-03-31T09:05:25.934Z,45.89
2016-03-31T09:06:25.936Z,45.98
2016-03-31T09:07:25.938Z,45.79
2016-03-31T09:08:25.941Z,45.89
2016-03-31T09:09:25.928Z,45.31
2016-03-31T09:10:25.962Z,45.79
2016-03-31T09:11:25.949Z,45.7
2016-03-31T09:12:25.952Z,46.15
2016-03-31T09:13:25.939Z,46.25
2016-03-31T09:14:25.941Z,46.34
2016-03-31T09:15:25.991Z,46.25
2016-03-31T09:16:25.947Z,46.32
2016-03-31T09:17:25.950Z,46.8
2016-03-31T09:18:25.937Z,46.42
2016-03-31T09:19:25.955Z,46.51
2016-03-31T09:20:25.942Z,46.34
2016-03-31T09:21:25.945Z,46.44
2016-03-31T09:22:25.947Z,45.96
2016-03-31T09:23:25.935Z,46.34
2016-03-31T09:24:25.952Z,46.25
2016-03-31T09:25:25.941Z,46.44
2016-03-31T09:26:25.943Z,46.44
2016-03-31T09:27:25.946Z,46.44
2016-03-31T09:28:25.949Z,46.56
2016-03-31T09:29:25.935Z,46.56
2016-03-31T09:30:25.954Z,46.17
2016-03-31T09:31:25.925Z,46.27
2016-03-31T09:32:25.943Z,45.79
2016-03-31T09:33:25.946Z,45.79
2016-03-31T09:34:25.934Z,45.7
2016-03-31T09:35:25.951Z,45.89
2016-03-31T09:36:25.954Z,45.41
2016-03-31T09:37:25.973Z,45.12
2016-03-31T09:38:25.944Z,45.03
2016-03-31T09:39:25.962Z,45.15
2016-03-31T09:40:25.950Z,44.95
2016-03-31T09:41:27.140Z,44.48
2016-03-31T09:42:27.486Z,44.38
2016-03-31T09:43:26.973Z,43.71
2016-03-31T09:44:25.945Z,42.94
2016-03-31T09:45:26.370Z,42.76
2016-03-31T09:46:25.966Z,42.73
2016-03-31T09:47:26.218Z,42.64
2016-03-31T09:48:25.955Z,42.93
2016-03-31T09:49:25.941Z,42.93
2016-03-31T09:50:26.366Z,42.73
2016-03-31T09:51:25.947Z,42.37
2016-03-31T09:52:27.185Z,42.56
2016-03-31T09:53:25.953Z,41.99
2016-03-31T09:54:27.019Z,41.99
2016-03-31T09:55:26.052Z,41.7
2016-03-31T09:56:25.946Z,42.08
2016-03-31T09:57:25.949Z,41.7
2016-03-31T09:58:26.404Z,41.7
2016-03-31T09:59:26.547Z,41.53
2016-03-31T10:00:26.112Z,41.24
2016-03-31T10:01:25.943Z,41.34
2016-03-31T10:02:25.962Z,40.95
2016-03-31T10:03:26.152Z,40.86
2016-03-31T10:04:25.936Z,40.77
2016-03-31T10:05:25.954Z,40.78
2016-03-31T10:08:25.946Z,40.42
2016-03-31T10:10:25.952Z,40.23
2016-03-31T10:11:25.954Z,39.75
2016-03-31T10:12:25.956Z,39.68
2016-03-31T10:13:25.959Z,39.29
2016-03-31T10:14:25.962Z,38.62
2016-03-31T10:15:25.965Z,38.54
2016-03-31T10:16:25.968Z,38.34
2016-03-31T10:17:25.970Z,38.35
2016-03-31T10:18:25.973Z,38.26
2016-03-31T10:19:25.961Z,37.97
2016-03-31T10:20:25.963Z,37.4
2016-03-31T10:21:25.967Z,37.01
2016-03-31T10:22:25.969Z,37.01
2016-03-31T10:23:25.987Z,36.72
2016-03-31T10:24:25.989Z,36.99
2016-03-31T10:25:25.992Z,37.09
2016-03-31T10:26:25.980Z,36.61
2016-03-31T10:27:25.997Z,34.69
2016-03-31T10:28:25.985Z,34.98
2016-03-31T10:29:25.987Z,35.55
2016-03-31T10:30:25.990Z,35.55
2016-03-31T10:31:25.993Z,34.69
2016-03-31T10:32:25.996Z,32.97
2016-03-31T10:33:25.998Z,32.67
2016-03-31T10:34:26.001Z,32.28
2016-03-31T10:35:26.003Z,32.36
2016-03-31T10:36:26.006Z,32.65
2016-03-31T10:37:26.009Z,33.12
2016-03-31T10:38:26.012Z,33.03
2016-03-31T10:39:26.030Z,32.75
2016-03-31T10:40:26.017Z,33.51
2016-03-31T10:41:26.035Z,33.7
2016-03-31T10:42:26.022Z,33.81
2016-03-31T10:43:26.041Z,33.81
2016-03-31T10:44:26.028Z,33.72
2016-03-31T10:45:26.031Z,33.92
2016-03-31T10:46:26.033Z,33.73
2016-03-31T10:47:26.051Z,34.02
2016-03-31T10:48:26.039Z,33.83
2016-03-31T10:49:26.041Z,33.92
2016-03-31T10:50:26.044Z,34.22
2016-03-31T10:51:26.047Z,33.92
2016-03-31T10:52:26.065Z,33.92
2016-03-31T10:53:26.052Z,33.92
2016-03-31T10:54:26.055Z,33.92
2016-03-31T10:55:26.041Z,34.02
2016-03-31T10:56:26.060Z,33.92
2016-03-31T10:57:26.063Z,34.31
2016-03-31T10:58:26.050Z,34.12
2016-03-31T10:59:26.053Z,34.02
2016-03-31T11:00:26.071Z,33.92
2016-03-31T11:01:26.089Z,33.92
2016-03-31T11:02:26.077Z,33.73
2016-03-31T11:03:27.032Z,33.16
2016-03-31T11:04:26.082Z,32.38
2016-03-31T11:05:26.085Z,32.38
2016-03-31T11:06:26.321Z,32.55
2016-03-31T11:07:25.918Z,32.92
2016-03-31T11:08:26.076Z,32.82
2016-03-31T11:09:26.079Z,33.59
2016-03-31T11:10:27.363Z,33.95
2016-03-31T11:11:26.085Z,34.24
2016-03-31T11:12:26.197Z,34.34
2016-03-31T11:13:26.090Z,34.45
2016-03-31T11:14:26.093Z,34.36
2016-03-31T11:15:26.112Z,34.16
2016-03-31T11:16:27.426Z,33.89
2016-03-31T11:17:26.086Z,33.89
2016-03-31T11:18:26.510Z,33.03
2016-03-31T11:19:26.075Z,33.03
2016-03-31T11:20:26.094Z,32.93
2016-03-31T11:21:26.081Z,32.65
2016-03-31T11:22:26.099Z,32.84
2016-03-31T11:23:26.086Z,32.46
2016-03-31T11:24:26.105Z,32.65
2016-03-31T11:25:26.561Z,32.38
2016-03-31T11:26:26.453Z,32.18
2016-03-31T11:27:26.113Z,32.28
2016-03-31T11:28:26.661Z,32.18
2016-03-31T11:30:26.104Z,32.2
2016-03-31T11:31:26.107Z,31.92
2016-03-31T11:32:26.110Z,31.82
2016-03-31T11:33:26.112Z,31.16
2016-03-31T11:34:26.116Z,30.68
2016-03-31T11:35:26.118Z,30.86
2016-03-31T11:36:26.120Z,31.34
2016-03-31T11:37:26.123Z,31.24
2016-03-31T11:38:26.126Z,31.15
2016-03-31T11:39:26.129Z,31.24
2016-03-31T11:40:26.116Z,31.34
2016-03-31T11:41:26.134Z,31.24
2016-03-31T11:42:26.137Z,31.43
2016-03-31T11:43:26.155Z,31.43
2016-03-31T11:44:26.142Z,30.86
2016-03-31T11:45:26.145Z,30.67
2016-03-31T11:46:26.148Z,30.76
2016-03-31T11:47:26.150Z,30.96
2016-03-31T11:48:26.153Z,31.15
2016-03-31T11:49:26.155Z,31.24
2016-03-31T11:50:26.158Z,31.05
2016-03-31T11:51:26.161Z,31.24
2016-03-31T11:52:26.164Z,31.24
2016-03-31T11:53:26.183Z,31.24
2016-03-31T11:54:26.169Z,31.24
2016-03-31T11:55:26.188Z,30.67
2016-03-31T11:56:26.158Z,30.76
2016-03-31T11:57:26.177Z,30.84
2016-03-31T11:58:26.164Z,30.94
2016-03-31T11:59:26.198Z,31.88
2016-03-31T12:00:26.170Z,31.69
2016-03-31T12:01:26.188Z,31.79
2016-03-31T12:02:26.175Z,31.98
2016-03-31T12:03:26.194Z,31.3
2016-03-31T12:04:26.181Z,31.69
2016-03-31T12:05:26.183Z,31.87
2016-03-31T12:06:26.186Z,31.48
2016-03-31T12:07:26.204Z,31.29
2016-03-31T12:08:26.191Z,31.76
2016-03-31T12:09:26.193Z,32.04
2016-03-31T12:10:26.212Z,31.56
2016-03-31T12:11:26.199Z,32.04
2016-03-31T12:12:26.218Z,32.23
2016-03-31T12:13:26.205Z,32.5
2016-03-31T12:14:26.207Z,32.98
2016-03-31T12:15:26.226Z,33.07
2016-03-31T12:16:26.212Z,32.98
2016-03-31T12:17:26.215Z,32.89
2016-03-31T12:18:26.202Z,32.31
2016-03-31T12:19:27.331Z,32.6
2016-03-31T12:20:27.333Z,32.41
2016-03-31T12:21:26.648Z,32.41
2016-03-31T12:22:26.214Z,32.31
2016-03-31T12:23:26.232Z,32.6
2016-03-31T12:24:26.219Z,32.33
2016-03-31T12:25:26.222Z,32.04
2016-03-31T12:26:26.224Z,31.87
2016-03-31T12:27:26.227Z,31.38
2016-03-31T12:28:26.947Z,31.1
2016-03-31T12:29:26.232Z,30.72
2016-03-31T12:30:26.813Z,30.43
2016-03-31T12:31:26.941Z,30.72
2016-03-31T12:32:26.740Z,30.72
2016-03-31T12:33:26.227Z,30.62
2016-03-31T12:34:40.588Z,30.72
2016-03-31T12:35:26.482Z,30.62
2016-03-31T12:36:41.219Z,30.64
2016-03-31T12:37:40.426Z,30.64
2016-03-31T12:38:26.429Z,30.64
2016-03-31T12:39:26.227Z,30.46
2016-03-31T12:40:26.074Z,30.64
2016-03-31T12:41:26.232Z,30.73
2016-03-31T12:42:26.345Z,31.1
2016-03-31T12:43:27.504Z,31.29
2016-03-31T12:46:26.856Z,31.76
2016-03-31T12:47:26.248Z,32.04
2016-03-31T12:48:26.251Z,32.33
2016-03-31T12:49:26.254Z,32.33
2016-03-31T12:50:26.257Z,32.42
2016-03-31T12:51:26.260Z,32.63
2016-03-31T12:52:26.278Z,32.34
2016-03-31T12:53:26.250Z,32.06
2016-03-31T12:54:26.252Z,32.06
2016-03-31T12:55:26.255Z,31.98
2016-03-31T12:56:26.258Z,32.07
2016-03-31T12:57:26.261Z,31.69
2016-03-31T12:58:26.263Z,31.79
2016-03-31T12:59:26.266Z,31.59
2016-03-31T13:00:26.252Z,31.59
2016-03-31T13:01:26.272Z,31.79
2016-03-31T13:02:26.258Z,31.98
2016-03-31T13:03:26.276Z,31.88
2016-03-31T13:04:26.263Z,31.96
2016-03-31T13:05:26.283Z,32.25
2016-03-31T13:06:26.269Z,32.82
2016-03-31T13:07:26.272Z,32.73
2016-03-31T13:08:26.306Z,32.73
2016-03-31T13:09:26.277Z,32.92
2016-03-31T13:10:26.279Z,32.44
2016-03-31T13:11:26.282Z,32.44
2016-03-31T13:12:26.270Z,32.34